sensor_id;sensor_type;location;lat;lon;timestamp;pressure;altitude;pressure_sealevel;temperature;humidity
63097;BME280;49185;42.320;23.198;2024-02-04T00:01:39;95389.75;;;-1.06;100.00
63097;BME280;49185;42.320;23.198;2024-02-04T00:04:04;95393.84;;;-0.95;100.00
63097;BME280;49185;42.320;23.198;2024-02-04T00:06:30;95385.47;;;-1.15;100.00
63097;BME280;49185;42.320;23.198;2024-02-04T00:08:55;95381.34;;;-1.26;100.00
63097;BME280;49185;42.320;23.198;2024-02-04T00:11:20;95384.97;;;-1.10;100.00
63097;BME280;49185;42.320;23.198;2024-02-04T00:13:46;95396.41;;;-1.03;100.00
63097;BME280;49185;42.320;23.198;2024-02-04T00:16:11;95397.22;;;-1.03;100.00
63097;BME280;49185;42.320;23.198;2024-02-04T00:18:36;95399.88;;;-0.94;100.00
63097;BME280;49185;42.320;23.198;2024-02-04T00:21:02;95394.50;;;-0.77;100.00
63097;BME280;49185;42.320;23.198;2024-02-04T00:23:27;95400.09;;;-0.63;100.00
63097;BME280;49185;42.320;23.198;2024-02-04T00:25:53;95396.31;;;-0.61;100.00
63097;BME280;49185;42.320;23.198;2024-02-04T00:28:18;95397.16;;;-0.44;100.00
63097;BME280;49185;42.320;23.198;2024-02-04T00:30:43;95396.47;;;-0.38;100.00
63097;BME280;49185;42.320;23.198;2024-02-04T00:33:09;95403.19;;;-0.43;100.00
63097;BME280;49185;42.320;23.198;2024-02-04T00:35:34;95403.69;;;-0.48;100.00
63097;BME280;49185;42.320;23.198;2024-02-04T00:38:00;95398.63;;;-0.33;100.00
63097;BME280;49185;42.320;23.198;2024-02-04T00:40:25;95404.00;;;-0.43;100.00
63097;BME280;49185;42.320;23.198;2024-02-04T00:42:50;95405.63;;;-0.42;100.00
63097;BME280;49185;42.320;23.198;2024-02-04T00:45:16;95409.06;;;-0.49;100.00
63097;BME280;49185;42.320;23.198;2024-02-04T00:47:41;95392.88;;;-0.45;100.00
63097;BME280;49185;42.320;23.198;2024-02-04T00:50:07;95411.34;;;-0.38;100.00
63097;BME280;49185;42.320;23.198;2024-02-04T00:52:32;95411.22;;;-0.28;100.00
63097;BME280;49185;42.320;23.198;2024-02-04T00:54:58;95421.00;;;-0.22;100.00
63097;BME280;49185;42.320;23.198;2024-02-04T00:57:23;95417.41;;;-0.21;100.00
63097;BME280;49185;42.320;23.198;2024-02-04T00:59:49;95412.50;;;-0.24;100.00
63097;BME280;49185;42.320;23.198;2024-02-04T01:02:14;95410.38;;;-0.29;100.00
63097;BME280;49185;42.320;23.198;2024-02-04T01:04:39;95412.19;;;-0.21;100.00
63097;BME280;49185;42.320;23.198;2024-02-04T01:07:05;95405.63;;;-0.17;100.00
63097;BME280;49185;42.320;23.198;2024-02-04T01:09:30;95402.03;;;-0.08;100.00
63097;BME280;49185;42.320;23.198;2024-02-04T01:11:56;95404.31;;;-0.13;100.00
63097;BME280;49185;42.320;23.198;2024-02-04T01:14:21;95393.38;;;-0.16;100.00
63097;BME280;49185;42.320;23.198;2024-02-04T01:16:47;95393.69;;;-0.03;100.00
63097;BME280;49185;42.320;23.198;2024-02-04T01:19:12;95394.00;;;-0.06;100.00
63097;BME280;49185;42.320;23.198;2024-02-04T01:21:37;95394.97;;;-0.07;100.00
63097;BME280;49185;42.320;23.198;2024-02-04T01:24:03;95394.97;;;-0.07;100.00
63097;BME280;49185;42.320;23.198;2024-02-04T01:26:28;95391.56;;;0.01;100.00
63097;BME280;49185;42.320;23.198;2024-02-04T01:28:54;95389.22;;;0.14;100.00
63097;BME280;49185;42.320;23.198;2024-02-04T01:31:19;95381.69;;;0.19;100.00
63097;BME280;49185;42.320;23.198;2024-02-04T01:33:44;95374.47;;;0.29;100.00
63097;BME280;49185;42.320;23.198;2024-02-04T01:36:10;95379.94;;;0.59;100.00
63097;BME280;49185;42.320;23.198;2024-02-04T01:38:35;95375.34;;;0.61;100.00
63097;BME280;49185;42.320;23.198;2024-02-04T01:41:01;95381.94;;;0.49;100.00
63097;BME280;49185;42.320;23.198;2024-02-04T01:43:26;95375.72;;;0.42;100.00
63097;BME280;49185;42.320;23.198;2024-02-04T01:45:51;95369.00;;;0.47;100.00
63097;BME280;49185;42.320;23.198;2024-02-04T01:48:17;95369.44;;;0.59;100.00
63097;BME280;49185;42.320;23.198;2024-02-04T01:50:43;95367.69;;;0.83;100.00
63097;BME280;49185;42.320;23.198;2024-02-04T01:53:09;95369.47;;;0.90;100.00
63097;BME280;49185;42.320;23.198;2024-02-04T01:55:36;95362.47;;;1.06;100.00
63097;BME280;49185;42.320;23.198;2024-02-04T01:58:02;95365.88;;;1.14;100.00
63097;BME280;49185;42.320;23.198;2024-02-04T02:00:28;95358.47;;;1.18;100.00
63097;BME280;49185;42.320;23.198;2024-02-04T02:02:54;95362.16;;;1.32;100.00
63097;BME280;49185;42.320;23.198;2024-02-04T02:05:20;95361.25;;;1.63;100.00
63097;BME280;49185;42.320;23.198;2024-02-04T02:07:46;95367.69;;;1.75;100.00
63097;BME280;49185;42.320;23.198;2024-02-04T02:10:11;95356.22;;;1.91;100.00
63097;BME280;49185;42.320;23.198;2024-02-04T02:12:48;95355.81;;;2.17;100.00
63097;BME280;49185;42.320;23.198;2024-02-04T02:15:23;95357.34;;;2.26;100.00
63097;BME280;49185;42.320;23.198;2024-02-04T02:18:04;95357.63;;;2.32;100.00
63097;BME280;49185;42.320;23.198;2024-02-04T02:20:47;95354.81;;;2.18;100.00
63097;BME280;49185;42.320;23.198;2024-02-04T02:23:30;95349.13;;;2.15;100.00
63097;BME280;49185;42.320;23.198;2024-02-04T02:25:56;95337.78;;;2.14;100.00
63097;BME280;49185;42.320;23.198;2024-02-04T02:28:22;95347.59;;;2.05;100.00
63097;BME280;49185;42.320;23.198;2024-02-04T02:30:49;95349.16;;;1.77;100.00
63097;BME280;49185;42.320;23.198;2024-02-04T02:33:15;95353.78;;;1.75;100.00
63097;BME280;49185;42.320;23.198;2024-02-04T02:35:41;95351.44;;;1.42;100.00
63097;BME280;49185;42.320;23.198;2024-02-04T02:38:31;95354.25;;;1.17;100.00
63097;BME280;49185;42.320;23.198;2024-02-04T02:40:59;95355.38;;;1.14;100.00
63097;BME280;49185;42.320;23.198;2024-02-04T02:43:29;95356.66;;;0.95;100.00
63097;BME280;49185;42.320;23.198;2024-02-04T02:45:55;95348.78;;;0.95;100.00
63097;BME280;49185;42.320;23.198;2024-02-04T02:48:21;95343.28;;;1.13;100.00
63097;BME280;49185;42.320;23.198;2024-02-04T02:50:47;95341.50;;;1.52;100.00
63097;BME280;49185;42.320;23.198;2024-02-04T02:53:12;95350.91;;;1.99;100.00
63097;BME280;49185;42.320;23.198;2024-02-04T02:55:38;95346.94;;;2.18;100.00
63097;BME280;49185;42.320;23.198;2024-02-04T02:58:03;95351.75;;;2.30;100.00
63097;BME280;49185;42.320;23.198;2024-02-04T03:00:29;95354.44;;;2.51;100.00
63097;BME280;49185;42.320;23.198;2024-02-04T03:02:54;95356.81;;;2.61;100.00
63097;BME280;49185;42.320;23.198;2024-02-04T03:05:19;95345.28;;;2.62;100.00
63097;BME280;49185;42.320;23.198;2024-02-04T03:07:45;95344.75;;;2.66;100.00
63097;BME280;49185;42.320;23.198;2024-02-04T03:10:10;95346.66;;;2.73;100.00
63097;BME280;49185;42.320;23.198;2024-02-04T03:12:36;95343.53;;;2.69;100.00
63097;BME280;49185;42.320;23.198;2024-02-04T03:15:01;95351.91;;;1.98;100.00
63097;BME280;49185;42.320;23.198;2024-02-04T03:17:27;95354.56;;;1.60;100.00
63097;BME280;49185;42.320;23.198;2024-02-04T03:19:52;95349.97;;;1.39;100.00
63097;BME280;49185;42.320;23.198;2024-02-04T03:22:18;95340.00;;;1.35;100.00
63097;BME280;49185;42.320;23.198;2024-02-04T03:24:43;95344.38;;;1.42;100.00
63097;BME280;49185;42.320;23.198;2024-02-04T03:27:09;95341.00;;;1.33;100.00
63097;BME280;49185;42.320;23.198;2024-02-04T03:29:34;95349.19;;;1.54;100.00
63097;BME280;49185;42.320;23.198;2024-02-04T03:31:59;95343.38;;;1.43;100.00
63097;BME280;49185;42.320;23.198;2024-02-04T03:34:25;95341.75;;;1.42;100.00
63097;BME280;49185;42.320;23.198;2024-02-04T03:36:50;95335.41;;;1.37;100.00
63097;BME280;49185;42.320;23.198;2024-02-04T03:39:15;95330.03;;;1.53;100.00
63097;BME280;49185;42.320;23.198;2024-02-04T03:41:41;95328.78;;;1.64;100.00
63097;BME280;49185;42.320;23.198;2024-02-04T03:44:06;95317.44;;;1.48;100.00
63097;BME280;49185;42.320;23.198;2024-02-04T03:46:32;95327.59;;;1.51;100.00
63097;BME280;49185;42.320;23.198;2024-02-04T03:48:57;95325.06;;;1.58;100.00
63097;BME280;49185;42.320;23.198;2024-02-04T03:51:22;95315.31;;;1.67;100.00
63097;BME280;49185;42.320;23.198;2024-02-04T03:53:50;95305.38;;;1.62;100.00
63097;BME280;49185;42.320;23.198;2024-02-04T03:56:15;95311.78;;;1.60;100.00
63097;BME280;49185;42.320;23.198;2024-02-04T03:58:41;95318.78;;;1.82;100.00
63097;BME280;49185;42.320;23.198;2024-02-04T04:01:10;95317.53;;;1.93;100.00
63097;BME280;49185;42.320;23.198;2024-02-04T04:03:35;95321.31;;;1.76;100.00
63097;BME280;49185;42.320;23.198;2024-02-04T04:06:00;95318.13;;;1.65;100.00
63097;BME280;49185;42.320;23.198;2024-02-04T04:08:26;95314.16;;;1.69;100.00
63097;BME280;49185;42.320;23.198;2024-02-04T04:10:51;95309.91;;;1.98;100.00
63097;BME280;49185;42.320;23.198;2024-02-04T04:13:16;95302.03;;;1.83;100.00
63097;BME280;49185;42.320;23.198;2024-02-04T04:15:42;95286.13;;;1.70;100.00
63097;BME280;49185;42.320;23.198;2024-02-04T04:18:07;95297.59;;;1.69;100.00
63097;BME280;49185;42.320;23.198;2024-02-04T04:20:32;95293.69;;;1.50;100.00
63097;BME280;49185;42.320;23.198;2024-02-04T04:22:58;95299.88;;;1.34;100.00
63097;BME280;49185;42.320;23.198;2024-02-04T04:25:23;95306.66;;;1.28;100.00
63097;BME280;49185;42.320;23.198;2024-02-04T04:27:49;95298.84;;;1.20;100.00
63097;BME280;49185;42.320;23.198;2024-02-04T04:30:14;95313.47;;;1.14;100.00
63097;BME280;49185;42.320;23.198;2024-02-04T04:32:39;95318.56;;;1.08;100.00
63097;BME280;49185;42.320;23.198;2024-02-04T04:35:05;95311.94;;;1.20;100.00
63097;BME280;49185;42.320;23.198;2024-02-04T04:37:30;95306.06;;;1.18;100.00
63097;BME280;49185;42.320;23.198;2024-02-04T04:39:56;95301.28;;;1.22;100.00
63097;BME280;49185;42.320;23.198;2024-02-04T04:42:21;95304.59;;;1.39;100.00
63097;BME280;49185;42.320;23.198;2024-02-04T04:44:46;95301.88;;;1.32;100.00
63097;BME280;49185;42.320;23.198;2024-02-04T04:47:12;95300.75;;;1.26;100.00
63097;BME280;49185;42.320;23.198;2024-02-04T04:49:37;95308.50;;;1.43;100.00
63097;BME280;49185;42.320;23.198;2024-02-04T04:52:03;95315.78;;;1.70;100.00
63097;BME280;49185;42.320;23.198;2024-02-04T04:54:28;95308.44;;;1.66;100.00
63097;BME280;49185;42.320;23.198;2024-02-04T04:56:54;95312.44;;;1.77;100.00
63097;BME280;49185;42.320;23.198;2024-02-04T04:59:19;95308.09;;;1.84;100.00
63097;BME280;49185;42.320;23.198;2024-02-04T05:01:46;95301.69;;;1.86;100.00
63097;BME280;49185;42.320;23.198;2024-02-04T05:04:11;95305.75;;;2.19;100.00
63097;BME280;49185;42.320;23.198;2024-02-04T05:06:36;95316.44;;;2.32;100.00
63097;BME280;49185;42.320;23.198;2024-02-04T05:09:02;95315.72;;;2.23;100.00
63097;BME280;49185;42.320;23.198;2024-02-04T05:11:27;95313.81;;;2.32;100.00
63097;BME280;49185;42.320;23.198;2024-02-04T05:13:53;95312.34;;;2.30;100.00
63097;BME280;49185;42.320;23.198;2024-02-04T05:16:18;95317.69;;;2.36;100.00
63097;BME280;49185;42.320;23.198;2024-02-04T05:18:43;95312.00;;;2.18;100.00
63097;BME280;49185;42.320;23.198;2024-02-04T05:21:09;95313.25;;;2.07;100.00
63097;BME280;49185;42.320;23.198;2024-02-04T05:23:36;95304.31;;;2.01;100.00
63097;BME280;49185;42.320;23.198;2024-02-04T05:26:05;95297.34;;;1.94;100.00
63097;BME280;49185;42.320;23.198;2024-02-04T05:28:31;95289.38;;;2.02;100.00
63097;BME280;49185;42.320;23.198;2024-02-04T05:30:56;95285.66;;;1.96;100.00
63097;BME280;49185;42.320;23.198;2024-02-04T05:33:22;95292.56;;;1.97;100.00
63097;BME280;49185;42.320;23.198;2024-02-04T05:35:47;95299.09;;;2.16;100.00
63097;BME280;49185;42.320;23.198;2024-02-04T05:38:12;95296.50;;;2.23;100.00
63097;BME280;49185;42.320;23.198;2024-02-04T05:40:38;95292.19;;;2.00;100.00
63097;BME280;49185;42.320;23.198;2024-02-04T05:43:03;95298.97;;;2.24;100.00
63097;BME280;49185;42.320;23.198;2024-02-04T05:45:29;95287.00;;;2.52;100.00
63097;BME280;49185;42.320;23.198;2024-02-04T05:47:54;95277.97;;;3.40;100.00
63097;BME280;49185;42.320;23.198;2024-02-04T05:50:19;95282.13;;;3.56;100.00
63097;BME280;49185;42.320;23.198;2024-02-04T05:52:45;95281.34;;;2.91;100.00
63097;BME280;49185;42.320;23.198;2024-02-04T05:55:10;95286.88;;;2.60;100.00
63097;BME280;49185;42.320;23.198;2024-02-04T05:57:35;95290.59;;;2.51;100.00
63097;BME280;49185;42.320;23.198;2024-02-04T06:00:01;95295.91;;;2.36;100.00
63097;BME280;49185;42.320;23.198;2024-02-04T06:02:26;95302.50;;;2.17;100.00
63097;BME280;49185;42.320;23.198;2024-02-04T06:04:52;95302.59;;;2.23;100.00
63097;BME280;49185;42.320;23.198;2024-02-04T06:07:17;95301.41;;;2.26;100.00
63097;BME280;49185;42.320;23.198;2024-02-04T06:09:42;95307.50;;;2.12;100.00
63097;BME280;49185;42.320;23.198;2024-02-04T06:12:08;95300.25;;;1.99;100.00
63097;BME280;49185;42.320;23.198;2024-02-04T06:14:33;95304.56;;;1.62;100.00
63097;BME280;49185;42.320;23.198;2024-02-04T06:16:59;95306.91;;;1.57;100.00
63097;BME280;49185;42.320;23.198;2024-02-04T06:19:24;95324.50;;;1.48;100.00
63097;BME280;49185;42.320;23.198;2024-02-04T06:21:49;95324.72;;;1.61;100.00
63097;BME280;49185;42.320;23.198;2024-02-04T06:24:15;95320.28;;;1.62;100.00
63097;BME280;49185;42.320;23.198;2024-02-04T06:26:40;95345.78;;;1.68;100.00
63097;BME280;49185;42.320;23.198;2024-02-04T06:29:05;95344.81;;;1.69;100.00
63097;BME280;49185;42.320;23.198;2024-02-04T06:31:31;95359.66;;;1.77;100.00
63097;BME280;49185;42.320;23.198;2024-02-04T06:33:57;95353.66;;;1.68;100.00
63097;BME280;49185;42.320;23.198;2024-02-04T06:36:22;95349.44;;;1.67;100.00
63097;BME280;49185;42.320;23.198;2024-02-04T06:38:47;95357.66;;;1.79;100.00
63097;BME280;49185;42.320;23.198;2024-02-04T06:41:13;95367.28;;;1.86;100.00
63097;BME280;49185;42.320;23.198;2024-02-04T06:43:39;95366.09;;;1.89;100.00
63097;BME280;49185;42.320;23.198;2024-02-04T06:46:04;95359.97;;;1.97;100.00
63097;BME280;49185;42.320;23.198;2024-02-04T06:48:30;95359.88;;;2.05;100.00
63097;BME280;49185;42.320;23.198;2024-02-04T06:50:55;95367.13;;;2.18;100.00
63097;BME280;49185;42.320;23.198;2024-02-04T06:53:20;95380.91;;;2.20;100.00
63097;BME280;49185;42.320;23.198;2024-02-04T06:55:46;95377.44;;;2.19;100.00
63097;BME280;49185;42.320;23.198;2024-02-04T06:58:11;95396.47;;;2.21;100.00
63097;BME280;49185;42.320;23.198;2024-02-04T07:00:37;95389.97;;;2.32;100.00
63097;BME280;49185;42.320;23.198;2024-02-04T07:03:02;95377.47;;;2.34;100.00
63097;BME280;49185;42.320;23.198;2024-02-04T07:05:28;95390.94;;;2.46;100.00
63097;BME280;49185;42.320;23.198;2024-02-04T07:07:53;95377.81;;;2.46;100.00
63097;BME280;49185;42.320;23.198;2024-02-04T07:10:18;95380.69;;;2.51;100.00
63097;BME280;49185;42.320;23.198;2024-02-04T07:12:44;95385.78;;;2.53;100.00
63097;BME280;49185;42.320;23.198;2024-02-04T07:15:09;95375.34;;;2.74;100.00
63097;BME280;49185;42.320;23.198;2024-02-04T07:17:35;95376.84;;;2.98;100.00
63097;BME280;49185;42.320;23.198;2024-02-04T07:20:04;95373.69;;;3.25;100.00
63097;BME280;49185;42.320;23.198;2024-02-04T07:22:30;95366.16;;;3.21;100.00
63097;BME280;49185;42.320;23.198;2024-02-04T07:24:55;95369.88;;;3.27;100.00
63097;BME280;49185;42.320;23.198;2024-02-04T07:27:20;95367.75;;;3.37;100.00
63097;BME280;49185;42.320;23.198;2024-02-04T07:29:46;95370.13;;;3.54;100.00
63097;BME280;49185;42.320;23.198;2024-02-04T07:32:11;95365.16;;;3.66;100.00
63097;BME280;49185;42.320;23.198;2024-02-04T07:34:37;95358.81;;;3.82;100.00
63097;BME280;49185;42.320;23.198;2024-02-04T07:37:02;95357.53;;;3.99;100.00
63097;BME280;49185;42.320;23.198;2024-02-04T07:39:27;95365.25;;;4.29;100.00
63097;BME280;49185;42.320;23.198;2024-02-04T07:41:53;95367.78;;;4.50;100.00
63097;BME280;49185;42.320;23.198;2024-02-04T07:44:18;95371.69;;;4.61;100.00
63097;BME280;49185;42.320;23.198;2024-02-04T07:46:44;95370.84;;;4.54;100.00
63097;BME280;49185;42.320;23.198;2024-02-04T07:49:09;95365.44;;;4.62;100.00
63097;BME280;49185;42.320;23.198;2024-02-04T07:51:34;95374.41;;;4.81;100.00
63097;BME280;49185;42.320;23.198;2024-02-04T07:54:00;95359.31;;;5.03;100.00
63097;BME280;49185;42.320;23.198;2024-02-04T07:56:25;95371.97;;;5.41;100.00
63097;BME280;49185;42.320;23.198;2024-02-04T07:58:50;95360.84;;;5.73;100.00
63097;BME280;49185;42.320;23.198;2024-02-04T08:01:18;95364.91;;;5.88;100.00
63097;BME280;49185;42.320;23.198;2024-02-04T08:03:43;95369.59;;;5.80;100.00
63097;BME280;49185;42.320;23.198;2024-02-04T08:06:09;95366.16;;;5.79;100.00
63097;BME280;49185;42.320;23.198;2024-02-04T08:08:34;95366.13;;;5.73;100.00
63097;BME280;49185;42.320;23.198;2024-02-04T08:10:59;95369.38;;;5.81;100.00
63097;BME280;49185;42.320;23.198;2024-02-04T08:13:25;95360.03;;;5.79;100.00
63097;BME280;49185;42.320;23.198;2024-02-04T08:15:50;95366.16;;;5.99;100.00
63097;BME280;49185;42.320;23.198;2024-02-04T08:18:16;95361.25;;;6.23;100.00
63097;BME280;49185;42.320;23.198;2024-02-04T08:20:41;95369.38;;;6.41;100.00
63097;BME280;49185;42.320;23.198;2024-02-04T08:23:06;95376.28;;;6.49;100.00
63097;BME280;49185;42.320;23.198;2024-02-04T08:25:32;95378.44;;;6.72;100.00
63097;BME280;49185;42.320;23.198;2024-02-04T08:27:58;95382.91;;;6.78;100.00
63097;BME280;49185;42.320;23.198;2024-02-04T08:30:23;95373.34;;;6.71;100.00
63097;BME280;49185;42.320;23.198;2024-02-04T08:32:49;95370.59;;;6.39;100.00
63097;BME280;49185;42.320;23.198;2024-02-04T08:35:14;95370.41;;;6.27;100.00
63097;BME280;49185;42.320;23.198;2024-02-04T08:37:39;95371.56;;;6.64;100.00
63097;BME280;49185;42.320;23.198;2024-02-04T08:40:06;95375.78;;;6.79;100.00
63097;BME280;49185;42.320;23.198;2024-02-04T08:42:32;95384.31;;;6.88;100.00
63097;BME280;49185;42.320;23.198;2024-02-04T08:44:57;95380.63;;;6.89;100.00
63097;BME280;49185;42.320;23.198;2024-02-04T08:47:22;95384.69;;;6.98;100.00
63097;BME280;49185;42.320;23.198;2024-02-04T08:49:48;95383.81;;;7.49;100.00
63097;BME280;49185;42.320;23.198;2024-02-04T08:52:13;95383.31;;;7.66;100.00
63097;BME280;49185;42.320;23.198;2024-02-04T08:54:39;95382.94;;;7.87;100.00
63097;BME280;49185;42.320;23.198;2024-02-04T08:57:04;95394.78;;;8.16;100.00
63097;BME280;49185;42.320;23.198;2024-02-04T08:59:29;95389.88;;;8.39;100.00
63097;BME280;49185;42.320;23.198;2024-02-04T09:01:55;95395.75;;;8.41;100.00
63097;BME280;49185;42.320;23.198;2024-02-04T09:04:20;95398.88;;;8.38;100.00
63097;BME280;49185;42.320;23.198;2024-02-04T09:06:46;95403.28;;;8.50;100.00
63097;BME280;49185;42.320;23.198;2024-02-04T09:09:11;95410.59;;;8.73;100.00
63097;BME280;49185;42.320;23.198;2024-02-04T09:11:36;95413.31;;;8.67;99.33
63097;BME280;49185;42.320;23.198;2024-02-04T09:14:02;95412.38;;;8.98;92.69
63097;BME280;49185;42.320;23.198;2024-02-04T09:16:28;95402.63;;;9.10;91.54
63097;BME280;49185;42.320;23.198;2024-02-04T09:18:53;95409.41;;;9.25;87.57
63097;BME280;49185;42.320;23.198;2024-02-04T09:21:18;95413.44;;;9.27;86.94
63097;BME280;49185;42.320;23.198;2024-02-04T09:23:44;95415.16;;;9.22;90.72
63097;BME280;49185;42.320;23.198;2024-02-04T09:26:09;95414.97;;;9.05;92.73
63097;BME280;49185;42.320;23.198;2024-02-04T09:28:34;95415.22;;;8.78;94.13
63097;BME280;49185;42.320;23.198;2024-02-04T09:31:00;95409.84;;;8.66;94.98
63097;BME280;49185;42.320;23.198;2024-02-04T09:33:25;95403.28;;;8.69;94.37
63097;BME280;49185;42.320;23.198;2024-02-04T09:35:51;95419.50;;;8.61;94.92
63097;BME280;49185;42.320;23.198;2024-02-04T09:38:16;95404.91;;;8.70;94.61
63097;BME280;49185;42.320;23.198;2024-02-04T09:40:42;95409.84;;;8.85;91.43
63097;BME280;49185;42.320;23.198;2024-02-04T09:43:08;95404.78;;;9.02;88.92
63097;BME280;49185;42.320;23.198;2024-02-04T09:45:34;95404.72;;;9.08;88.87
63097;BME280;49185;42.320;23.198;2024-02-04T09:48:01;95410.38;;;9.12;87.90
63097;BME280;49185;42.320;23.198;2024-02-04T09:50:26;95413.47;;;9.09;89.34
63097;BME280;49185;42.320;23.198;2024-02-04T09:52:57;95406.75;;;9.25;88.90
63097;BME280;49185;42.320;23.198;2024-02-04T09:55:25;95397.16;;;9.42;88.60
63097;BME280;49185;42.320;23.198;2024-02-04T09:57:50;95389.28;;;10.20;85.69
63097;BME280;49185;42.320;23.198;2024-02-04T10:00:19;95381.09;;;10.45;83.84
63097;BME280;49185;42.320;23.198;2024-02-04T10:02:44;95384.78;;;10.68;83.03
63097;BME280;49185;42.320;23.198;2024-02-04T10:05:10;95392.31;;;10.82;79.71
63097;BME280;49185;42.320;23.198;2024-02-04T10:07:36;95394.41;;;10.69;80.26
63097;BME280;49185;42.320;23.198;2024-02-04T10:10:01;95389.41;;;10.84;79.79
63097;BME280;49185;42.320;23.198;2024-02-04T10:12:27;95393.09;;;11.07;77.83
63097;BME280;49185;42.320;23.198;2024-02-04T10:14:52;95387.09;;;10.88;78.47
63097;BME280;49185;42.320;23.198;2024-02-04T10:17:18;95387.88;;;11.00;78.38
63097;BME280;49185;42.320;23.198;2024-02-04T10:19:47;95385.63;;;10.68;78.94
63097;BME280;49185;42.320;23.198;2024-02-04T10:22:12;95389.31;;;10.79;77.99
63097;BME280;49185;42.320;23.198;2024-02-04T10:24:37;95377.81;;;10.90;78.26
63097;BME280;49185;42.320;23.198;2024-02-04T10:27:04;95380.47;;;11.02;77.81
63097;BME280;49185;42.320;23.198;2024-02-04T10:29:29;95382.25;;;11.25;75.59
63097;BME280;49185;42.320;23.198;2024-02-04T10:31:55;95376.47;;;11.57;76.12
63097;BME280;49185;42.320;23.198;2024-02-04T10:34:21;95383.25;;;11.48;75.32
63097;BME280;49185;42.320;23.198;2024-02-04T10:36:46;95385.50;;;11.27;76.71
63097;BME280;49185;42.320;23.198;2024-02-04T10:39:11;95394.22;;;11.23;76.22
63097;BME280;49185;42.320;23.198;2024-02-04T10:41:41;95390.78;;;10.98;76.02
63097;BME280;49185;42.320;23.198;2024-02-04T10:44:11;95385.56;;;11.04;76.03
63097;BME280;49185;42.320;23.198;2024-02-04T10:46:39;95384.50;;;11.05;76.98
63097;BME280;49185;42.320;23.198;2024-02-04T10:49:06;95385.25;;;10.76;78.29
63097;BME280;49185;42.320;23.198;2024-02-04T10:51:36;95388.28;;;10.56;79.54
63097;BME280;49185;42.320;23.198;2024-02-04T10:54:04;95382.25;;;10.49;79.90
63097;BME280;49185;42.320;23.198;2024-02-04T10:56:38;95369.63;;;10.80;78.52
63097;BME280;49185;42.320;23.198;2024-02-04T10:59:06;95372.28;;;11.61;74.75
63097;BME280;49185;42.320;23.198;2024-02-04T11:01:33;95370.56;;;11.84;74.48
63097;BME280;49185;42.320;23.198;2024-02-04T11:03:59;95361.00;;;11.88;73.94
63097;BME280;49185;42.320;23.198;2024-02-04T11:06:26;95359.22;;;11.76;74.88
63097;BME280;49185;42.320;23.198;2024-02-04T11:08:52;95348.16;;;11.10;76.65
63097;BME280;49185;42.320;23.198;2024-02-04T11:11:18;95353.38;;;11.05;79.56
63097;BME280;49185;42.320;23.198;2024-02-04T11:13:47;95342.41;;;10.90;79.66
63097;BME280;49185;42.320;23.198;2024-02-04T11:16:31;95351.97;;;11.02;78.13
63097;BME280;49185;42.320;23.198;2024-02-04T11:19:23;95356.66;;;10.83;79.31
63097;BME280;49185;42.320;23.198;2024-02-04T11:22:22;95357.97;;;10.34;81.84
63097;BME280;49185;42.320;23.198;2024-02-04T11:27:25;95362.09;;;10.30;81.32
63097;BME280;49185;42.320;23.198;2024-02-04T11:29:51;95345.84;;;10.38;80.95
63097;BME280;49185;42.320;23.198;2024-02-04T11:32:17;95341.66;;;10.18;84.13
63097;BME280;49185;42.320;23.198;2024-02-04T11:34:44;95340.94;;;10.11;84.99
63097;BME280;49185;42.320;23.198;2024-02-04T11:37:19;95344.50;;;10.29;82.01
63097;BME280;49185;42.320;23.198;2024-02-04T11:39:50;95341.09;;;10.40;82.32
63097;BME280;49185;42.320;23.198;2024-02-04T11:42:15;95325.59;;;10.37;83.46
63097;BME280;49185;42.320;23.198;2024-02-04T11:44:41;95333.13;;;10.40;81.50
63097;BME280;49185;42.320;23.198;2024-02-04T11:47:06;95327.78;;;10.40;81.49
63097;BME280;49185;42.320;23.198;2024-02-04T11:49:32;95334.72;;;10.41;80.85
63097;BME280;49185;42.320;23.198;2024-02-04T11:51:57;95323.50;;;10.51;80.80
63097;BME280;49185;42.320;23.198;2024-02-04T11:54:23;95329.28;;;10.59;82.58
63097;BME280;49185;42.320;23.198;2024-02-04T11:56:49;95328.31;;;10.66;83.57
63097;BME280;49185;42.320;23.198;2024-02-04T11:59:16;95328.78;;;10.74;81.15
63097;BME280;49185;42.320;23.198;2024-02-04T12:01:41;95324.84;;;10.77;80.58
63097;BME280;49185;42.320;23.198;2024-02-04T12:04:14;95323.69;;;10.73;81.99
63097;BME280;49185;42.320;23.198;2024-02-04T12:06:41;95317.09;;;11.16;79.99
63097;BME280;49185;42.320;23.198;2024-02-04T12:09:08;95323.09;;;11.23;80.26
63097;BME280;49185;42.320;23.198;2024-02-04T12:11:35;95324.03;;;11.17;80.47
63097;BME280;49185;42.320;23.198;2024-02-04T12:14:01;95318.13;;;11.15;80.35
63097;BME280;49185;42.320;23.198;2024-02-04T12:16:28;95331.25;;;11.05;80.32
63097;BME280;49185;42.320;23.198;2024-02-04T12:18:54;95331.97;;;11.00;80.47
63097;BME280;49185;42.320;23.198;2024-02-04T12:21:19;95320.41;;;10.94;81.42
63097;BME280;49185;42.320;23.198;2024-02-04T12:23:45;95304.16;;;11.08;81.67
63097;BME280;49185;42.320;23.198;2024-02-04T12:26:10;95293.50;;;11.36;78.12
63097;BME280;49185;42.320;23.198;2024-02-04T12:28:37;95280.56;;;11.91;76.93
63097;BME280;49185;42.320;23.198;2024-02-04T12:31:02;95277.31;;;11.89;76.68
63097;BME280;49185;42.320;23.198;2024-02-04T12:33:28;95281.50;;;11.68;77.75
63097;BME280;49185;42.320;23.198;2024-02-04T12:35:53;95281.00;;;11.54;77.89
63097;BME280;49185;42.320;23.198;2024-02-04T12:38:19;95285.13;;;11.45;76.98
63097;BME280;49185;42.320;23.198;2024-02-04T12:40:44;95271.59;;;11.17;77.78
63097;BME280;49185;42.320;23.198;2024-02-04T12:43:11;95275.19;;;11.11;79.27
63097;BME280;49185;42.320;23.198;2024-02-04T12:45:37;95280.94;;;11.20;79.84
63097;BME280;49185;42.320;23.198;2024-02-04T12:48:03;95266.09;;;11.24;79.15